Timeline UpdatesTrip UpdatesNews PostsPvt PostsTravel TipsAdmin PostsConv PostsFollowed PostsChat RequestsBlog PostsPNR Posts

Disclaimer
Search
 
 
Sat Aug 30, 2014 03:38:54 ISTHomeTrainsΣChainsAtlasPNRForumGalleryNewsFAQTripsMembersLoginFeedback
No Recent News for this Train
Other Trains in the News **new
Latest...
.
Fri Feb 28, 2014 (07:32PM)
⇐ Return Journey: Train# 19216

19215/Saurashtra Express

Nov 09 2013 (9:09PM)
Change Departure Station:
Change Arrival Station:
Post a Train Travel TipPost a Train Travel Tip **new
Post a Comment/Question/Picture/VideoPost a Comment/Question/Picture/Video
Pantry/Catering
✕ NO Pantry Car
✓ Catering Avbl
RSA - Rake Sharing
Rake/Coach Composition
ENG - SLR - GEN - GEN - GEN - FC1 - B1 - S4 - S3 - S2 - S1 - LD - GEN - RMS - GEN - GEN - GEN - SLR - Milk van
Loco
BCT-ADI: BRC WAP-4/ ADI-PBR: VTA WDM-3A
News    PNR    Forum    Time-Table    Availability    Fare Chart    Map    Arr/Dep History    Trips    Gallery    ΣChains    X/O    Timeline    
Travel Time: 11h 40m    23 halts    Distance: 508 km    Avg Speed: 43 km/hr
Type: Mail/Express
Zone: WR/Western
Departs @ 18:10 (Avg 16m late)
Platform# ???
SMTWTFS
Nadiad Junction/ND 
Arrives @ 05:50 +1 night (Avg 1m late)
Platform# 1
SMTWTFS
Porbandar/PBR 

23 halts. 75 intermediate Stations between Nadiad Junction and Porbandar

Show ALL intermediate Stations  Show Old Time-Table

#CodeStation NameX/OArrivesAvgDepartsAvgHaltPFDay#KmSpeedElevZoneAddress
1BCTMumbai Central (9)  -08:20+031-447.1363mWRMumbai 400008, Maharashtra
2DDRMumbai Dadar Western (6)  08:30+408:32+42m31-441.1516mWRMumbai, Maharashtra
3BVIMumbai Borivali (8)X  09:00+609:02+82m41-417.44519mWRMumbai - 400092, Maharashtra
4BSRVasai Road (7)  09:25+309:27+32m41-400.0467mWRVasai 401202, Maharashtra
5VRVirar (8)  09:38+409:40+52m31-391.6656mWRDist. Palghar, Maharashtra
6SAHSaphale (2)X  09:55+909:57+82m11-375.3748mWRDist. Palghar, Maharashtra
7PLGPalghar (3)X  10:09+1010:11+102m--1-360.46819mWRPalghar, Maharashtra
8BORBoisar (3)X  10:21+1010:23+102m21-349.26517mWRBoisar Tel.no-02525-266626, Maharashtra
9DRDDahanu Road (5)X  10:43+910:45+92m--1-327.56712mWRDahanu, Maharashtra
10GVDGholvad (4)X  10:55+910:57+92m--1-316.35014mWRGholvad, Maharashtra
11UBRUmbargam Road (3)  11:08+711:10+72m11-307.13630mWRUmbergaon, Gujarat
12SJNSanjan (3)X  11:19+611:21+72m--1-301.85322mWRSanjan, Gujarat
13BLDBhilad (3)11:34+411:36+42m--1-290.2-33mWRBhilad, Gujarat
14VAPIVapi (3)X  11:40+1011:42+112m11-278.94827mWRVapi, Gujarat
15UVDUdvada (3)X  11:54+1011:56+102m--1-269.36018mWRUdvada, Gujarat
16PADPardi (3)  12:02+1112:04+112m--1-263.43419mWRValsad, Gujarat
17BLValsad (3)X  12:23+512:25+132m11-252.75415mWRValsad, Gujarat
18BIMBilimora Junction (4)  12:45+1212:47+122m11-234.85611mWRBilimora, Gujarat
19AMLAmalsad (3)  12:53+1212:55+122m--1-229.27212mWRAmalsad, Gujarat
20NVSNavsari (3)X  13:08+1413:10+162m11-213.64614mWRNavsari, Gujarat
21MRLMaroli (3)X  13:21+1713:23+182m11-205.16115mWRMaroli, Gujarat
22UDNUdhna Junction (3)X  13:40+2013:42+202m11-188.0916mWRUdhna 394210, Gujarat
23STSurat (4)X  14:10+514:15+75m11-184.05919mWRSurat 395001, Gujarat
24SYNSayan (3)  14:29+1714:31+162m--1-170.38521mWRSayan Satellite town, Gujarat
25KIMKim (2)  14:38+1814:40+172m--1-160.45818mWRNH 8, Gujarat
26KSBKosamba Junction (3)X  14:48+1814:50+182m--1-152.67130mWRKosamba, Gujarat
27PAOPanoli (3)  14:57+1914:59+182m--1-144.46929mWRPanoli, Gujarat
28AKVAnkleshwar Junction (4)  15:08+2015:10+192m11-134.04319mWRAnkleshwar, Gujarat
29BHBharuch Junction (5)X  15:23+1915:25+222m31-124.76619mWRBharuch, Gujarat
30NIUNabipur (3)X  15:36+2615:38+252m--1-112.68024mWRNabipur, Gujarat
31PLJPalej (4)X  15:48+2815:50+282m--1-99.38329mWRPalej, Gujarat
32MYGMiyagam Karjan (2)  16:01+2816:03+272m21-84.07029mWRKarjan, Gujarat
33ITAItola (4)  16:13+3016:15+292m--1-72.44827mWRNational Highway 8 Vadodara, Gujarat
34VSVishvamitri (4)XO  16:34+3216:36+322m--1-57.2930mWRVadodara, Gujarat
35BRCVadodara Junction (7)X  16:55+2317:00+245m41-54.25036mWRVadodara 390005, Gujarat
36VDAVasad Junction (3)X  17:24+2517:26+242m21-34.05240mWRVasad, Gujarat
37ANNDAnand Junction (6)  17:44+1517:46+162m--1-18.45644mWRAnand, Gujarat
38KBRVKanjari Boriyavi Junction (4)X  17:54+2817:56+282m--1-11.05539mWRKanjari, Gujarat
39ND»Nadiad Junction (4)»O  18:08+1618:10+162m--10.05037mWRNadiad, Gujarat
40MHDMahemdavad Kheda Road (4)XO  18:31+2118:33+212m3117.65737mWRMahemdavad, Gujarat
41BJDBarejadi Nandej (3)O  18:45+2218:47+222m--128.92442mWRBareja-Barejadi Rd, Gujarat
42MANManinagar (2)O  19:21+019:23+02m1142.41150mWRAhmadabad, Gujarat
43ADIAhmedabad Junction (12)XO19:40+1620:00+2020m6145.61951mWRAhmedabad, Gujarat
44SBISabarmati Junction (3)  20:17-20:19-2m--151.03755mWRAhmadabad, Gujarat
45CLDYChandlodiya  20:28+2220:30+222m--156.66859mWRAhmedabad, Gujarat
46ABDAmbli RoadX  20:35+2220:37+222m--162.37050mWRAhmedabad, Gujarat
47SAUSanand  20:47+2520:49+252m--173.95840mWRSanand, Gujarat
48CEChharodi  21:00+2521:02+252m--184.67029mWRSH 17, Gujarat
49JKAJakhvadaX  21:14+2521:16+252m--198.63031mWRState Highway 17, Gujarat
50VGViramgam Junction (5)X  21:41+1521:43+172m11110.95229mWRViramgam, Gujarat
51SUNRSurendranagar Junction (4)  22:58+2723:00+292m11176.56472mWRSurendra Nagar, Gujarat
52THANThan Junction (3)  23:45+2823:47+292m11224.261138mWRThangadh, Gujarat
53WKRWankaner Junction (4)X  00:13+3100:15+342m--2250.84087mWRWankaner, Gujarat
54RJTRajkot Junction (5)X  01:18+1601:24+206m32292.567128mWRRajkot, Gujarat
55HAPAHapa (3)X  02:32+1602:34+162m--2368.44316mWRJamnagar, Gujarat
56JAMJamnagar (2)X  02:46+1602:48+172m--2377.14714mWRJamnagar, Gujarat
57LPJLalpur Jam  03:44+1903:46+192m--2421.16076mWRLalpur, Gujarat
58GOPGop Jam  04:03+2004:05+192m--2438.265126mWRState Highway 27, Gujarat
59BNVDBhanvad  04:22+1904:24+182m--2456.65555mWRBhanvad, Gujarat
60WSJWansjaliya  04:44+1704:45+181m--2474.98455mWRTarsai - Vansjaliya, Gujarat
61SKRSakhpur  04:50+004:52+02m--2481.83155mWRto railway station, Gujarat
62RWORanavavX  05:18+1205:20+132m--2495.12737mWRRanavav, Gujarat
63PBR•Porbandar•  05:50+1-12508.5-7mWRPorbandar, Gujarat
Scroll to Top
Scroll to Bottom